Time;durP1;ratioP1;P1;durP2;ratioP2;P2;SDS_P1;SDS_P2;PMS_P1;PMS_P2;Temp;Humidity;BMP_temperature;BMP_pressure;BME280_temperature;BME280_humidity;BME280_pressure;Samples;Min_cycle;Max_cycle;Signal;HPM_P1;HPM_P2
2022/11/13 00:01:41;;;;;;;30.83;19.23;;;;;;;;;;4468571;32;20200;-86
2022/11/13 00:04:09;;;;;;;30.57;19.60;;;;;;;;;;4468020;32;20280;-85
2022/11/13 00:06:36;;;;;;;36.47;24.03;;;;;;;;;;4467966;32;20276;-85
2022/11/13 00:09:03;;;;;;;29.83;22.70;;;;;;;;;;4467880;32;20219;-85
2022/11/13 00:11:35;;;;;;;30.83;20.17;;;;;;;;;;4467918;32;20602;-85
2022/11/13 00:14:02;;;;;;;24.37;17.23;;;;;;;;;;4467970;32;20256;-84
2022/11/13 00:16:29;;;;;;;25.70;17.00;;;;;;;;;;4468467;32;20222;-85
2022/11/13 00:18:56;;;;;;;22.67;15.97;;;;;;;;;;4467981;32;20239;-85
2022/11/13 00:21:28;;;;;;;23.07;16.47;;;;;;;;;;4467918;32;20200;-85
2022/11/13 00:23:56;;;;;;;22.20;15.37;;;;;;;;;;4468033;32;20228;-88
2022/11/13 00:26:25;;;;;;;25.60;18.63;;;;;;;;;;4468479;32;20204;-87
2022/11/13 00:28:58;;;;;;;30.17;17.70;;;;;;;;;;4466979;32;20250;-85
2022/11/13 00:31:25;;;;;;;23.90;16.40;;;;;;;;;;4468535;32;20208;-85
2022/11/13 00:33:53;;;;;;;30.30;17.07;;;;;;;;;;4468013;32;20220;-86
2022/11/13 00:36:29;;;;;;;22.30;15.33;;;;;;;;;;4471377;32;20555;-86
2022/11/13 00:38:56;;;;;;;25.20;15.80;;;;;;;;;;4471020;32;20233;-87
2022/11/13 00:41:24;;;;;;;27.87;17.30;;;;;;;;;;4469504;32;20602;-85
2022/11/13 00:43:51;;;;;;;27.93;18.57;;;;;;;;;;4470546;32;20219;-85
2022/11/13 00:46:23;;;;;;;25.70;15.53;;;;;;;;;;4470522;32;20238;-85
2022/11/13 00:48:50;;;;;;;30.77;18.37;;;;;;;;;;4470683;32;20216;-86
2022/11/13 00:51:21;;;;;;;30.10;21.10;;;;;;;;;;4470454;32;20671;-87
2022/11/13 00:53:48;;;;;;;21.93;16.57;;;;;;;;;;4470449;32;20348;-85
2022/11/13 00:56:15;;;;;;;22.50;15.43;;;;;;;;;;4470374;32;20220;-85
2022/11/13 00:58:41;;;;;;;17.23;12.77;;;;;;;;;;4470512;32;20310;-85
2022/11/13 01:01:12;;;;;;;18.50;12.07;;;;;;;;;;4470573;32;20216;-85
2022/11/13 01:03:40;;;;;;;15.33;10.50;;;;;;;;;;4470458;32;20679;-85
2022/11/13 01:06:11;;;;;;;25.57;17.00;;;;;;;;;;4470700;32;20200;-85
2022/11/13 01:08:38;;;;;;;19.00;14.37;;;;;;;;;;4470426;32;20235;-85
2022/11/13 01:11:12;;;;;;;38.67;21.00;;;;;;;;;;4470375;32;20234;-85
2022/11/13 01:13:39;;;;;;;31.47;20.37;;;;;;;;;;4470244;32;20235;-85
2022/11/13 01:16:09;;;;;;;27.50;18.67;;;;;;;;;;4470062;32;20255;-85
2022/11/13 01:18:36;;;;;;;32.27;20.77;;;;;;;;;;4470177;32;20224;-86
2022/11/13 01:21:07;;;;;;;30.10;19.47;;;;;;;;;;4469835;32;20235;-85
2022/11/13 01:23:34;;;;;;;43.07;25.83;;;;;;;;;;4470160;32;20228;-85
2022/11/13 01:26:09;;;;;;;39.67;22.30;;;;;;;;;;4470351;32;20212;-85
2022/11/13 01:28:36;;;;;;;42.93;24.37;;;;;;;;;;4470207;32;20237;-85
2022/11/13 01:31:05;;;;;;;42.37;25.23;;;;;;;;;;4470143;32;20611;-85
2022/11/13 01:33:32;;;;;;;45.17;24.87;;;;;;;;;;4469940;32;20290;-85
2022/11/13 01:36:03;;;;;;;46.20;23.30;;;;;;;;;;4469866;32;20234;-85
2022/11/13 01:38:32;;;;;;;47.10;27.43;;;;;;;;;;4470355;32;20208;-85
2022/11/13 01:40:59;;;;;;;58.03;30.20;;;;;;;;;;4469773;32;20529;-86
2022/11/13 01:43:28;;;;;;;53.97;28.13;;;;;;;;;;4469778;32;20230;-85
2022/11/13 01:46:22;;;;;;;50.80;24.83;;;;;;;;;;4469211;32;20238;-85
2022/11/13 01:48:54;;;;;;;44.77;24.70;;;;;;;;;;4469174;32;20651;-84
2022/11/13 01:51:27;;;;;;;27.00;16.97;;;;;;;;;;4469959;32;20219;-84
2022/11/13 01:53:56;;;;;;;30.17;18.70;;;;;;;;;;4469622;32;20669;-85
2022/11/13 01:56:23;;;;;;;33.17;18.43;;;;;;;;;;4469698;32;20212;-84
2022/11/13 01:59:01;;;;;;;42.83;22.33;;;;;;;;;;4468523;32;20610;-85
2022/11/13 02:01:28;;;;;;;45.90;24.67;;;;;;;;;;4469672;32;20220;-85
2022/11/13 02:03:56;;;;;;;46.23;25.90;;;;;;;;;;4469677;32;20264;-84
2022/11/13 02:06:27;;;;;;;58.97;27.37;;;;;;;;;;4469308;32;20618;-85
2022/11/13 02:08:56;;;;;;;61.73;31.80;;;;;;;;;;4469530;32;20208;-85
2022/11/13 02:11:23;;;;;;;73.23;31.30;;;;;;;;;;4469559;32;20236;-85
2022/11/13 02:13:50;;;;;;;53.77;30.00;;;;;;;;;;4469743;32;20222;-85
2022/11/13 02:16:19;;;;;;;71.47;35.63;;;;;;;;;;4469601;32;20226;-85
2022/11/13 02:18:46;;;;;;;50.53;32.07;;;;;;;;;;4469177;32;20219;-85
2022/11/13 02:21:22;;;;;;;55.43;28.37;;;;;;;;;;4468991;32;20212;-84
2022/11/13 02:23:59;;;;;;;44.50;29.47;;;;;;;;;;4469721;32;20232;-85
2022/11/13 02:26:31;;;;;;;44.17;27.07;;;;;;;;;;4469386;32;20774;-85
2022/11/13 02:28:58;;;;;;;40.43;25.40;;;;;;;;;;4469587;32;20711;-85
2022/11/13 02:31:25;;;;;;;39.37;24.23;;;;;;;;;;4469264;32;20220;-85
2022/11/13 02:33:52;;;;;;;44.77;25.23;;;;;;;;;;4469434;32;20283;-85
2022/11/13 02:36:27;;;;;;;39.67;23.40;;;;;;;;;;4468855;32;20214;-85
2022/11/13 02:38:55;;;;;;;46.17;24.60;;;;;;;;;;4469531;32;20249;-85
2022/11/13 02:41:22;;;;;;;41.87;23.57;;;;;;;;;;4469225;32;20291;-85
2022/11/13 02:43:50;;;;;;;53.90;27.77;;;;;;;;;;4469094;32;20299;-85
2022/11/13 02:46:19;;;;;;;45.10;24.47;;;;;;;;;;4469273;32;20556;-85
2022/11/13 02:48:45;;;;;;;47.03;26.77;;;;;;;;;;4468816;32;20231;-85
2022/11/13 02:51:13;;;;;;;50.70;26.73;;;;;;;;;;4468835;32;20299;-85
2022/11/13 02:53:40;;;;;;;41.13;22.50;;;;;;;;;;4468559;32;20258;-85
2022/11/13 02:56:08;;;;;;;37.63;22.60;;;;;;;;;;4469011;32;20292;-85
2022/11/13 02:58:35;;;;;;;29.07;20.40;;;;;;;;;;4468985;32;20224;-85
2022/11/13 03:01:04;;;;;;;31.70;19.90;;;;;;;;;;4468528;32;20217;-85
2022/11/13 03:03:31;;;;;;;37.63;19.80;;;;;;;;;;4468591;32;20701;-85
2022/11/13 03:05:58;;;;;;;34.07;19.73;;;;;;;;;;4469059;32;20261;-85
2022/11/13 03:08:25;;;;;;;44.53;25.10;;;;;;;;;;4468447;32;20220;-85
2022/11/13 03:10:53;;;;;;;51.33;27.90;;;;;;;;;;4468699;32;20267;-85
2022/11/13 03:13:21;;;;;;;58.40;27.00;;;;;;;;;;4468291;32;20572;-85
2022/11/13 03:15:48;;;;;;;55.57;27.90;;;;;;;;;;4468847;32;20620;-85
2022/11/13 03:18:19;;;;;;;51.33;28.30;;;;;;;;;;4468356;32;20215;-85
2022/11/13 03:20:52;;;;;;;56.03;28.40;;;;;;;;;;4468371;32;20204;-85
2022/11/13 03:23:19;;;;;;;54.27;27.50;;;;;;;;;;4467350;32;20262;-85
2022/11/13 03:25:46;;;;;;;45.97;26.83;;;;;;;;;;4468578;32;20207;-85
2022/11/13 03:28:13;;;;;;;44.87;27.43;;;;;;;;;;4468311;32;20308;-85
2022/11/13 03:30:40;;;;;;;61.43;32.63;;;;;;;;;;4468447;32;20204;-85
2022/11/13 03:33:07;;;;;;;49.40;27.10;;;;;;;;;;4467168;32;20240;-85
2022/11/13 03:35:35;;;;;;;53.77;28.60;;;;;;;;;;4468685;32;20204;-85
2022/11/13 03:38:05;;;;;;;49.23;29.13;;;;;;;;;;4468173;32;20291;-85
2022/11/13 03:40:32;;;;;;;45.47;28.47;;;;;;;;;;4468478;32;20275;-84
2022/11/13 03:42:59;;;;;;;44.20;26.40;;;;;;;;;;4468210;32;20220;-85
2022/11/13 03:45:26;;;;;;;45.47;27.17;;;;;;;;;;4468185;32;20624;-85
2022/11/13 03:47:53;;;;;;;52.70;29.27;;;;;;;;;;4468307;32;20235;-87
2022/11/13 03:50:23;;;;;;;66.40;33.00;;;;;;;;;;4468126;32;20212;-85
2022/11/13 03:52:52;;;;;;;60.80;34.83;;;;;;;;;;4466976;32;20791;-85
2022/11/13 03:55:19;;;;;;;61.47;32.67;;;;;;;;;;4468162;32;20522;-85
2022/11/13 03:57:47;;;;;;;63.83;35.10;;;;;;;;;;4467185;32;20235;-85
2022/11/13 04:00:15;;;;;;;64.00;32.87;;;;;;;;;;4467420;32;20234;-84
2022/11/13 04:02:42;;;;;;;71.63;36.33;;;;;;;;;;4467995;32;20258;-85
2022/11/13 04:05:11;;;;;;;64.20;37.17;;;;;;;;;;4467155;32;20207;-85
2022/11/13 04:07:38;;;;;;;63.70;33.77;;;;;;;;;;4468062;32;20560;-84
2022/11/13 04:10:07;;;;;;;71.13;34.13;;;;;;;;;;4467958;32;20634;-85
2022/11/13 04:12:34;;;;;;;66.80;37.50;;;;;;;;;;4470883;32;20231;-85
2022/11/13 04:15:01;;;;;;;73.37;37.03;;;;;;;;;;4471269;32;20212;-84
2022/11/13 04:17:28;;;;;;;65.53;35.43;;;;;;;;;;4470988;32;20242;-85
2022/11/13 04:19:54;;;;;;;75.53;38.07;;;;;;;;;;4470940;32;20205;-85
2022/11/13 04:22:22;;;;;;;70.73;36.77;;;;;;;;;;4471361;32;20212;-85
2022/11/13 04:24:49;;;;;;;63.70;34.77;;;;;;;;;;4470761;32;20249;-85
2022/11/13 04:27:17;;;;;;;71.43;36.90;;;;;;;;;;4471308;32;20203;-87
2022/11/13 04:29:44;;;;;;;68.80;38.63;;;;;;;;;;4470769;32;20246;-85
2022/11/13 04:32:12;;;;;;;79.40;39.90;;;;;;;;;;4470708;32;20208;-85
2022/11/13 04:34:39;;;;;;;80.43;40.70;;;;;;;;;;4470687;32;20573;-85
2022/11/13 04:37:05;;;;;;;78.03;39.87;;;;;;;;;;4470642;32;20567;-85
2022/11/13 04:39:32;;;;;;;77.00;38.57;;;;;;;;;;4470751;32;20313;-86
2022/11/13 04:44:47;;;;;;;70.53;37.97;;;;;;;;;;4470557;32;20280;-85
2022/11/13 04:47:16;;;;;;;77.80;40.13;;;;;;;;;;4470384;32;20231;-85
2022/11/13 04:49:45;;;;;;;68.67;41.17;;;;;;;;;;4470428;32;20295;-85
2022/11/13 04:52:13;;;;;;;70.77;39.90;;;;;;;;;;4470329;32;20290;-86
2022/11/13 04:54:44;;;;;;;71.23;37.67;;;;;;;;;;4470201;32;20236;-85
2022/11/13 04:57:11;;;;;;;59.87;38.23;;;;;;;;;;4471280;32;20199;-85
2022/11/13 04:59:38;;;;;;;67.73;38.23;;;;;;;;;;4470592;32;20212;-86
2022/11/13 05:02:07;;;;;;;61.87;37.13;;;;;;;;;;4469348;32;20226;-85
2022/11/13 05:04:33;;;;;;;62.20;38.90;;;;;;;;;;4469336;32;20262;-87
2022/11/13 05:07:00;;;;;;;69.63;38.77;;;;;;;;;;4470542;32;20204;-86
2022/11/13 05:09:27;;;;;;;64.27;38.80;;;;;;;;;;4470136;32;20307;-84
2022/11/13 05:11:54;;;;;;;73.10;43.57;;;;;;;;;;4470167;32;20231;-84
2022/11/13 05:14:20;;;;;;;83.17;46.10;;;;;;;;;;4470056;32;20560;-84
2022/11/13 05:16:48;;;;;;;100.50;52.60;;;;;;;;;;4470092;32;20195;-84
2022/11/13 05:19:17;;;;;;;91.80;54.17;;;;;;;;;;4469936;32;20216;-84
2022/11/13 05:21:44;;;;;;;93.20;51.90;;;;;;;;;;4470633;32;20204;-84
2022/11/13 05:24:11;;;;;;;102.80;53.57;;;;;;;;;;4470061;32;20689;-87
2022/11/13 05:26:39;;;;;;;117.73;65.37;;;;;;;;;;4470460;32;20200;-87
2022/11/13 05:29:06;;;;;;;118.20;62.50;;;;;;;;;;4469912;32;20250;-86
2022/11/13 05:31:36;;;;;;;97.37;52.53;;;;;;;;;;4470361;32;20276;-87
2022/11/13 05:34:04;;;;;;;94.53;46.67;;;;;;;;;;4469732;32;20702;-84
2022/11/13 05:36:35;;;;;;;87.83;46.40;;;;;;;;;;4469823;32;20688;-84
2022/11/13 05:39:03;;;;;;;75.67;41.40;;;;;;;;;;4469822;32;20317;-84
2022/11/13 05:41:31;;;;;;;81.97;45.27;;;;;;;;;;4469887;32;20233;-87
2022/11/13 05:44:00;;;;;;;72.20;41.47;;;;;;;;;;4469486;32;20242;-85
2022/11/13 05:46:29;;;;;;;79.30;42.47;;;;;;;;;;4469536;32;20222;-84
2022/11/13 05:48:58;;;;;;;78.10;42.07;;;;;;;;;;4469890;32;20243;-85
2022/11/13 05:51:28;;;;;;;82.43;41.27;;;;;;;;;;4469612;32;20271;-84
2022/11/13 05:53:57;;;;;;;85.53;42.80;;;;;;;;;;4469442;32;20288;-86
2022/11/13 05:56:28;;;;;;;80.60;44.77;;;;;;;;;;4469390;32;20208;-87
2022/11/13 05:58:57;;;;;;;79.87;46.40;;;;;;;;;;4469653;32;20303;-86
2022/11/13 06:01:27;;;;;;;90.20;51.47;;;;;;;;;;4469869;32;20274;-85
2022/11/13 06:03:55;;;;;;;105.63;59.83;;;;;;;;;;4469697;32;20234;-87
2022/11/13 06:06:23;;;;;;;119.57;69.93;;;;;;;;;;4469380;32;20560;-84
2022/11/13 06:08:51;;;;;;;141.07;85.20;;;;;;;;;;4468564;32;20228;-87
2022/11/13 06:11:21;;;;;;;88.03;53.50;;;;;;;;;;4469620;32;20260;-85
2022/11/13 06:13:52;;;;;;;101.67;57.93;;;;;;;;;;4469577;32;20227;-86
2022/11/13 06:16:21;;;;;;;76.07;45.63;;;;;;;;;;4468825;32;20204;-85
2022/11/13 06:18:49;;;;;;;106.40;53.50;;;;;;;;;;4469320;32;20228;-85
2022/11/13 06:21:18;;;;;;;90.90;49.63;;;;;;;;;;4469219;32;20548;-85
2022/11/13 06:23:45;;;;;;;75.87;43.80;;;;;;;;;;4469183;32;20220;-85
2022/11/13 06:26:15;;;;;;;109.73;57.30;;;;;;;;;;4468629;32;20233;-85
2022/11/13 06:28:46;;;;;;;101.53;60.83;;;;;;;;;;4468020;32;20578;-87
2022/11/13 06:31:15;;;;;;;118.73;64.43;;;;;;;;;;4469260;32;20252;-87
2022/11/13 06:33:43;;;;;;;118.03;65.73;;;;;;;;;;4468658;32;20580;-85
2022/11/13 06:36:14;;;;;;;101.83;61.17;;;;;;;;;;4468986;32;20228;-86
2022/11/13 06:38:42;;;;;;;100.90;61.10;;;;;;;;;;4469243;32;20223;-87
2022/11/13 06:41:10;;;;;;;86.77;54.17;;;;;;;;;;4468899;32;20209;-84
2022/11/13 06:43:37;;;;;;;78.33;44.73;;;;;;;;;;4467730;32;20232;-85
2022/11/13 06:46:13;;;;;;;66.27;38.87;;;;;;;;;;4468749;32;20214;-88
2022/11/13 06:48:40;;;;;;;61.23;33.53;;;;;;;;;;4468885;32;20238;-86
2022/11/13 06:51:09;;;;;;;37.03;24.73;;;;;;;;;;4469008;32;20290;-89
2022/11/13 06:53:36;;;;;;;37.03;23.23;;;;;;;;;;4467630;32;20244;-87
2022/11/13 06:56:05;;;;;;;29.87;19.27;;;;;;;;;;4468582;32;20313;-86
2022/11/13 06:58:33;;;;;;;34.40;20.83;;;;;;;;;;4469272;32;20257;-86
2022/11/13 07:01:08;;;;;;;27.80;18.53;;;;;;;;;;4468273;32;20526;-86
2022/11/13 07:03:35;;;;;;;37.87;25.27;;;;;;;;;;4469300;32;20214;-86
2022/11/13 07:06:03;;;;;;;32.20;20.37;;;;;;;;;;4468599;32;20268;-86
2022/11/13 07:08:30;;;;;;;31.07;20.00;;;;;;;;;;4468607;32;20575;-86
2022/11/13 07:10:59;;;;;;;26.87;18.03;;;;;;;;;;4468740;32;20220;-86
2022/11/13 07:13:27;;;;;;;28.43;18.70;;;;;;;;;;4468917;32;20219;-87
2022/11/13 07:15:54;;;;;;;27.80;17.83;;;;;;;;;;4468486;32;20216;-87
2022/11/13 07:18:27;;;;;;;27.10;16.67;;;;;;;;;;4468381;32;20212;-85
2022/11/13 07:20:54;;;;;;;30.17;18.17;;;;;;;;;;4468500;32;20287;-87
2022/11/13 07:23:21;;;;;;;26.70;17.80;;;;;;;;;;4468702;32;20200;-87
2022/11/13 07:25:53;;;;;;;38.93;20.73;;;;;;;;;;4467955;32;20243;-88
2022/11/13 07:28:20;;;;;;;30.33;19.70;;;;;;;;;;4468403;32;20216;-86
2022/11/13 07:30:47;;;;;;;30.70;20.37;;;;;;;;;;4468224;32;20364;-86
2022/11/13 07:33:14;;;;;;;31.70;22.70;;;;;;;;;;4468225;32;20342;-85
2022/11/13 07:35:42;;;;;;;27.10;20.13;;;;;;;;;;4468707;32;20564;-86
2022/11/13 07:38:09;;;;;;;32.67;20.40;;;;;;;;;;4468201;32;20200;-85
2022/11/13 07:40:36;;;;;;;28.33;19.37;;;;;;;;;;4468359;32;20228;-85
2022/11/13 07:43:04;;;;;;;27.67;20.60;;;;;;;;;;4468078;32;20284;-86
2022/11/13 07:45:31;;;;;;;30.30;22.40;;;;;;;;;;4470062;32;20288;-86
2022/11/13 07:47:58;;;;;;;32.27;20.20;;;;;;;;;;4471543;32;20243;-85
2022/11/13 07:50:28;;;;;;;37.00;22.73;;;;;;;;;;4471317;32;20208;-86
2022/11/13 07:52:57;;;;;;;38.07;23.27;;;;;;;;;;4471040;32;20228;-86
2022/11/13 07:55:25;;;;;;;29.57;21.57;;;;;;;;;;4471294;32;20227;-86
2022/11/13 07:57:55;;;;;;;35.50;22.37;;;;;;;;;;4471221;32;20208;-86
2022/11/13 08:00:22;;;;;;;34.97;21.90;;;;;;;;;;4471438;32;20227;-86
2022/11/13 08:02:52;;;;;;;32.47;22.27;;;;;;;;;;4471438;32;20283;-86
2022/11/13 08:05:19;;;;;;;34.77;22.00;;;;;;;;;;4471081;32;20224;-86
2022/11/13 08:07:47;;;;;;;37.10;23.33;;;;;;;;;;4470984;32;20544;-86
2022/11/13 08:10:19;;;;;;;36.10;23.27;;;;;;;;;;4470988;32;20351;-86
2022/11/13 08:12:46;;;;;;;33.63;24.80;;;;;;;;;;4471496;32;20235;-88
2022/11/13 08:15:13;;;;;;;42.43;25.17;;;;;;;;;;4471272;32;20295;-85
2022/11/13 08:17:40;;;;;;;34.10;24.43;;;;;;;;;;4471071;32;20226;-83
2022/11/13 08:20:08;;;;;;;35.97;24.20;;;;;;;;;;4470886;32;20232;-83
2022/11/13 08:22:35;;;;;;;39.33;24.43;;;;;;;;;;4471340;32;20208;-83
2022/11/13 08:25:02;;;;;;;33.43;23.97;;;;;;;;;;4469940;32;20246;-83
2022/11/13 08:27:31;;;;;;;38.30;26.37;;;;;;;;;;4471820;32;20279;-84
2022/11/13 08:30:01;;;;;;;35.07;26.23;;;;;;;;;;4471181;32;20238;-84
2022/11/13 08:32:27;;;;;;;40.07;26.60;;;;;;;;;;4470781;32;20265;-84
2022/11/13 08:34:55;;;;;;;34.20;24.40;;;;;;;;;;4470582;32;20793;-84
2022/11/13 08:37:22;;;;;;;31.07;23.87;;;;;;;;;;4471246;32;20226;-85
2022/11/13 08:39:49;;;;;;;30.83;23.27;;;;;;;;;;4470542;32;20224;-85
2022/11/13 08:42:15;;;;;;;35.67;25.40;;;;;;;;;;4469461;32;20233;-84
2022/11/13 08:44:46;;;;;;;36.67;24.67;;;;;;;;;;4470531;32;20656;-84
2022/11/13 08:47:13;;;;;;;35.43;24.87;;;;;;;;;;4471024;32;20204;-83
2022/11/13 08:49:40;;;;;;;37.40;25.27;;;;;;;;;;4470673;32;20292;-85
2022/11/13 08:52:08;;;;;;;38.90;24.07;;;;;;;;;;4470455;32;20220;-83
2022/11/13 08:54:35;;;;;;;33.30;24.43;;;;;;;;;;4470154;32;20668;-84
2022/11/13 08:57:03;;;;;;;29.17;22.30;;;;;;;;;;4469956;32;20256;-83
2022/11/13 08:59:30;;;;;;;31.07;24.23;;;;;;;;;;4470914;32;20258;-83
2022/11/13 09:01:58;;;;;;;28.37;21.20;;;;;;;;;;4470436;32;20208;-83
2022/11/13 09:04:29;;;;;;;25.40;19.40;;;;;;;;;;4470373;32;20219;-85
2022/11/13 09:06:56;;;;;;;25.73;19.20;;;;;;;;;;4470797;32;20196;-85
2022/11/13 09:09:23;;;;;;;25.53;20.20;;;;;;;;;;4470165;32;20209;-83
2022/11/13 09:11:51;;;;;;;27.33;20.10;;;;;;;;;;4469170;32;20568;-83
2022/11/13 09:14:18;;;;;;;25.27;19.27;;;;;;;;;;4470008;32;20222;-83
2022/11/13 09:16:45;;;;;;;24.93;18.57;;;;;;;;;;4469948;32;20422;-83
2022/11/13 09:19:13;;;;;;;25.60;20.23;;;;;;;;;;4470018;32;20226;-83
2022/11/13 09:21:40;;;;;;;21.67;16.83;;;;;;;;;;4468963;32;20556;-83
2022/11/13 09:24:07;;;;;;;33.07;18.47;;;;;;;;;;4470405;32;20204;-83
2022/11/13 09:26:36;;;;;;;28.70;20.10;;;;;;;;;;4469939;32;20212;-83
2022/11/13 09:29:03;;;;;;;30.23;17.60;;;;;;;;;;4470828;32;20253;-85
2022/11/13 09:31:30;;;;;;;28.57;17.33;;;;;;;;;;4469810;32;20226;-86
2022/11/13 09:34:00;;;;;;;23.73;16.83;;;;;;;;;;4469661;32;20230;-84
2022/11/13 09:36:28;;;;;;;21.97;16.97;;;;;;;;;;4469788;32;20232;-84
2022/11/13 09:38:56;;;;;;;21.23;17.30;;;;;;;;;;4469799;32;20708;-86
2022/11/13 09:41:26;;;;;;;24.50;17.23;;;;;;;;;;4469686;32;20280;-85
2022/11/13 09:43:54;;;;;;;26.20;21.10;;;;;;;;;;4469572;32;20208;-84
2022/11/13 09:46:28;;;;;;;23.43;18.03;;;;;;;;;;4469909;32;20265;-85
2022/11/13 09:48:58;;;;;;;22.53;16.70;;;;;;;;;;4470164;32;20266;-84
2022/11/13 09:51:30;;;;;;;19.87;16.63;;;;;;;;;;4469771;32;20259;-84
2022/11/13 09:53:58;;;;;;;21.63;15.73;;;;;;;;;;4469474;32;20228;-84
2022/11/13 09:56:31;;;;;;;22.63;16.83;;;;;;;;;;4468853;32;20779;-85
2022/11/13 09:59:04;;;;;;;24.50;16.80;;;;;;;;;;4469535;32;20200;-84
2022/11/13 10:01:38;;;;;;;24.87;15.57;;;;;;;;;;4469695;32;20232;-85
2022/11/13 10:04:12;;;;;;;21.17;16.53;;;;;;;;;;4469573;32;20270;-84
2022/11/13 10:07:04;;;;;;;24.00;17.33;;;;;;;;;;4469444;32;20235;-86
2022/11/13 10:09:41;;;;;;;23.23;17.93;;;;;;;;;;4469537;32;20205;-85
2022/11/13 10:12:09;;;;;;;26.07;18.30;;;;;;;;;;4469381;32;20237;-85
2022/11/13 10:14:44;;;;;;;26.07;18.57;;;;;;;;;;4469369;32;20230;-84
2022/11/13 10:17:16;;;;;;;26.63;20.37;;;;;;;;;;4469251;32;20219;-85
2022/11/13 10:19:53;;;;;;;25.03;18.97;;;;;;;;;;4469724;32;20204;-86
2022/11/13 10:22:28;;;;;;;27.73;20.67;;;;;;;;;;4469367;32;20243;-84
2022/11/13 10:25:01;;;;;;;23.87;18.33;;;;;;;;;;4469350;32;20296;-86
2022/11/13 10:27:28;;;;;;;27.10;19.00;;;;;;;;;;4469170;32;20696;-85
2022/11/13 10:29:56;;;;;;;37.80;20.33;;;;;;;;;;4469580;32;20691;-85
2022/11/13 10:32:26;;;;;;;28.73;20.90;;;;;;;;;;4469023;32;20254;-85
2022/11/13 10:35:00;;;;;;;30.70;21.33;;;;;;;;;;4469471;32;20207;-84
2022/11/13 10:37:56;;;;;;;33.17;20.97;;;;;;;;;;4469025;32;20217;-85
2022/11/13 10:40:29;;;;;;;23.43;17.93;;;;;;;;;;4469317;32;20609;-85
2022/11/13 10:43:05;;;;;;;26.17;14.90;;;;;;;;;;4468844;32;20253;-84
2022/11/13 10:45:34;;;;;;;17.67;14.27;;;;;;;;;;4469449;32;20593;-84
2022/11/13 10:48:01;;;;;;;26.00;14.47;;;;;;;;;;4469100;32;20212;-87
2022/11/13 10:50:32;;;;;;;31.67;16.10;;;;;;;;;;4468671;32;20228;-84
2022/11/13 10:53:00;;;;;;;19.37;15.27;;;;;;;;;;4468726;32;20291;-85
2022/11/13 10:55:37;;;;;;;18.00;15.20;;;;;;;;;;4468612;32;20232;-87
2022/11/13 10:58:12;;;;;;;20.00;16.53;;;;;;;;;;4471700;32;20248;-85
2022/11/13 11:00:48;;;;;;;18.60;13.60;;;;;;;;;;4468805;32;20203;-85
2022/11/13 11:03:20;;;;;;;21.95;13.77;;;;;;;;;;4468778;32;20692;-85
2022/11/13 11:05:58;;;;;;;19.07;15.50;;;;;;;;;;4468737;32;20204;-85
2022/11/13 11:08:33;;;;;;;18.53;15.53;;;;;;;;;;4468873;32;20755;-86
2022/11/13 11:13:46;;;;;;;19.13;15.33;;;;;;;;;;4469663;32;20240;-85
2022/11/13 11:16:20;;;;;;;20.62;15.38;;;;;;;;;;4468322;32;20237;-85
2022/11/13 11:18:52;;;;;;;20.10;14.63;;;;;;;;;;4468521;32;20204;-86
2022/11/13 11:21:23;;;;;;;29.37;16.92;;;;;;;;;;4468864;32;20239;-85
2022/11/13 11:23:59;;;;;;;20.57;14.70;;;;;;;;;;4469043;32;20621;-85
2022/11/13 11:26:34;;;;;;;14.45;12.27;;;;;;;;;;4468528;32;20215;-85
2022/11/13 11:29:08;;;;;;;18.43;12.83;;;;;;;;;;4468572;32;20204;-85
2022/11/13 11:31:45;;;;;;;15.73;12.82;;;;;;;;;;4468255;32;20286;-85
2022/11/13 11:34:18;;;;;;;19.90;14.48;;;;;;;;;;4468357;32;20225;-85
2022/11/13 11:36:55;;;;;;;17.57;15.20;;;;;;;;;;4468225;32;20742;-85
2022/11/13 11:39:35;;;;;;;22.83;15.07;;;;;;;;;;4468251;32;20534;-85
2022/11/13 11:42:18;;;;;;;24.00;16.10;;;;;;;;;;4468326;32;20220;-85
2022/11/13 11:45:01;;;;;;;21.53;16.07;;;;;;;;;;4468142;32;20297;-85
2022/11/13 11:47:35;;;;;;;19.67;15.90;;;;;;;;;;4467944;32;20276;-85
2022/11/13 11:50:14;;;;;;;24.57;14.60;;;;;;;;;;4468755;32;20208;-85
2022/11/13 11:52:58;;;;;;;20.23;16.20;;;;;;;;;;4468245;32;20550;-86
2022/11/13 11:55:56;;;;;;;24.53;14.87;;;;;;;;;;4467970;32;20697;-85
2022/11/13 11:58:39;;;;;;;21.23;16.03;;;;;;;;;;4468042;32;20506;-85
2022/11/13 12:01:13;;;;;;;17.83;14.43;;;;;;;;;;4468382;32;20382;-85
2022/11/13 12:03:58;;;;;;;22.53;16.23;;;;;;;;;;4468675;32;20203;-85
2022/11/13 12:06:36;;;;;;;20.93;15.97;;;;;;;;;;4468146;32;20298;-85
2022/11/13 12:09:17;;;;;;;21.73;15.70;;;;;;;;;;4468479;32;20215;-85
2022/11/13 12:11:52;;;;;;;21.73;15.23;;;;;;;;;;4468409;32;20235;-85
2022/11/13 12:14:31;;;;;;;18.77;13.77;;;;;;;;;;4468070;32;20717;-84
2022/11/13 12:17:09;;;;;;;18.27;15.07;;;;;;;;;;4468318;32;20225;-85
2022/11/13 12:19:53;;;;;;;17.27;14.90;;;;;;;;;;4468017;32;20284;-88
2022/11/13 12:22:27;;;;;;;21.53;15.13;;;;;;;;;;4467722;32;20590;-85
2022/11/13 12:25:15;;;;;;;19.53;15.93;;;;;;;;;;4468081;32;20235;-86
2022/11/13 12:28:09;;;;;;;23.23;15.30;;;;;;;;;;4468270;32;20310;-85
2022/11/13 12:30:47;;;;;;;22.40;17.13;;;;;;;;;;4468443;32;20235;-85
2022/11/13 12:33:29;;;;;;;22.10;15.00;;;;;;;;;;4470946;32;20208;-86
2022/11/13 12:35:57;;;;;;;28.77;16.87;;;;;;;;;;4471211;32;20341;-85
2022/11/13 12:38:38;;;;;;;21.57;15.47;;;;;;;;;;4470642;32;20209;-86
2022/11/13 12:41:15;;;;;;;21.63;16.93;;;;;;;;;;4470452;32;20224;-85
2022/11/13 12:44:07;;;;;;;22.47;16.40;;;;;;;;;;4470461;32;20576;-85
2022/11/13 12:46:39;;;;;;;23.97;16.10;;;;;;;;;;4470921;32;20212;-85
2022/11/13 12:49:25;;;;;;;20.43;15.03;;;;;;;;;;4470409;32;20320;-86
2022/11/13 12:52:00;;;;;;;19.70;16.33;;;;;;;;;;4470691;32;20235;-86
2022/11/13 12:54:32;;;;;;;27.53;17.67;;;;;;;;;;4470260;32;20228;-86
2022/11/13 12:57:24;;;;;;;21.93;17.40;;;;;;;;;;4469623;32;20212;-86
2022/11/13 12:59:56;;;;;;;20.33;15.93;;;;;;;;;;4455241;32;20748;-85
2022/11/13 13:02:39;;;;;;;26.13;16.00;;;;;;;;;;4470494;32;20295;-84
2022/11/13 13:05:17;;;;;;;22.37;16.90;;;;;;;;;;4470313;32;20287;-84
2022/11/13 13:08:02;;;;;;;24.67;15.90;;;;;;;;;;4470233;32;20256;-84
2022/11/13 13:10:57;;;;;;;20.63;15.83;;;;;;;;;;4470616;32;20243;-86
2022/11/13 13:13:32;;;;;;;21.23;15.03;;;;;;;;;;4470435;32;20552;-85
2022/11/13 13:16:08;;;;;;;20.07;16.60;;;;;;;;;;4470345;32;20294;-84
2022/11/13 13:18:38;;;;;;;21.80;15.57;;;;;;;;;;4470335;32;20243;-85
2022/11/13 13:21:08;;;;;;;29.03;19.53;;;;;;;;;;4469988;32;20204;-85
2022/11/13 13:23:37;;;;;;;31.67;20.47;;;;;;;;;;4469927;32;20233;-84
2022/11/13 13:26:16;;;;;;;24.50;18.57;;;;;;;;;;4470175;32;20212;-85
2022/11/13 13:28:46;;;;;;;23.87;17.40;;;;;;;;;;4470242;32;20220;-87
2022/11/13 13:31:26;;;;;;;34.57;18.60;;;;;;;;;;4470640;32;20200;-84
2022/11/13 13:34:03;;;;;;;20.33;16.07;;;;;;;;;;4469961;32;20226;-84
2022/11/13 13:36:49;;;;;;;22.30;17.07;;;;;;;;;;4469795;32;20252;-84
2022/11/13 13:39:28;;;;;;;23.73;16.50;;;;;;;;;;4470233;32;20318;-85
2022/11/13 13:42:11;;;;;;;29.13;18.60;;;;;;;;;;4469724;32;20200;-85
2022/11/13 13:45:04;;;;;;;24.53;17.90;;;;;;;;;;4470306;32;20257;-85
2022/11/13 13:47:37;;;;;;;25.47;17.87;;;;;;;;;;4470488;32;20209;-87
2022/11/13 13:50:07;;;;;;;34.27;17.73;;;;;;;;;;4470296;32;20633;-84
2022/11/13 13:52:36;;;;;;;19.43;16.70;;;;;;;;;;4469720;32;20578;-85
2022/11/13 13:55:06;;;;;;;24.23;17.50;;;;;;;;;;4469805;32;20644;-85
2022/11/13 13:57:34;;;;;;;21.83;17.70;;;;;;;;;;4469663;32;20643;-85
2022/11/13 14:00:06;;;;;;;23.33;17.57;;;;;;;;;;4469877;32;20216;-85
2022/11/13 14:02:34;;;;;;;29.00;19.33;;;;;;;;;;4470005;32;20209;-84
2022/11/13 14:05:27;;;;;;;32.97;19.70;;;;;;;;;;4469459;32;20228;-84
2022/11/13 14:07:54;;;;;;;32.80;19.97;;;;;;;;;;4469665;32;20272;-85
2022/11/13 14:10:25;;;;;;;30.63;21.97;;;;;;;;;;4469519;32;20219;-85
2022/11/13 14:12:52;;;;;;;25.47;19.83;;;;;;;;;;4469779;32;20268;-85
2022/11/13 14:15:26;;;;;;;25.90;20.13;;;;;;;;;;4469131;32;20279;-86
2022/11/13 14:18:05;;;;;;;33.90;21.63;;;;;;;;;;4469798;32;20235;-85
2022/11/13 14:20:41;;;;;;;34.97;21.50;;;;;;;;;;4469361;32;20264;-85
2022/11/13 14:23:10;;;;;;;30.97;22.63;;;;;;;;;;4469562;32;20215;-85
2022/11/13 14:25:40;;;;;;;46.30;24.17;;;;;;;;;;4469076;32;20215;-85
2022/11/13 14:28:16;;;;;;;43.27;28.87;;;;;;;;;;4469369;32;20227;-85
2022/11/13 14:30:46;;;;;;;49.23;31.87;;;;;;;;;;4469589;32;20233;-85
2022/11/13 14:33:19;;;;;;;40.87;28.93;;;;;;;;;;4469019;32;20591;-85
2022/11/13 14:35:52;;;;;;;42.90;29.57;;;;;;;;;;4469252;32;20306;-85
2022/11/13 14:38:21;;;;;;;42.63;31.73;;;;;;;;;;4469209;32;20280;-85
2022/11/13 14:40:50;;;;;;;48.47;34.43;;;;;;;;;;4469036;32;20216;-85
2022/11/13 14:43:21;;;;;;;58.60;40.57;;;;;;;;;;4469259;32;20293;-85